sensor_id;sensor_type;location;lat;lon;timestamp;P1;durP1;ratioP1;P2;durP2;ratioP2
7154;SDS011;3619;53.784;10.440;2023-08-24T00:00:18;2.17;;;2.07;;
7154;SDS011;3619;53.784;10.440;2023-08-24T00:02:45;1.60;;;1.50;;
7154;SDS011;3619;53.784;10.440;2023-08-24T00:05:12;2.17;;;2.03;;
7154;SDS011;3619;53.784;10.440;2023-08-24T00:07:40;1.97;;;1.87;;
7154;SDS011;3619;53.784;10.440;2023-08-24T00:10:07;1.47;;;1.43;;
7154;SDS011;3619;53.784;10.440;2023-08-24T00:12:36;1.33;;;1.33;;
7154;SDS011;3619;53.784;10.440;2023-08-24T00:15:04;1.90;;;1.80;;
7154;SDS011;3619;53.784;10.440;2023-08-24T00:17:34;2.33;;;2.13;;
7154;SDS011;3619;53.784;10.440;2023-08-24T00:20:00;1.63;;;1.60;;
7154;SDS011;3619;53.784;10.440;2023-08-24T00:22:29;2.00;;;1.90;;
7154;SDS011;3619;53.784;10.440;2023-08-24T00:24:56;1.47;;;1.43;;
7154;SDS011;3619;53.784;10.440;2023-08-24T00:27:23;1.80;;;1.70;;
7154;SDS011;3619;53.784;10.440;2023-08-24T00:29:51;1.93;;;1.83;;
7154;SDS011;3619;53.784;10.440;2023-08-24T00:32:19;1.57;;;1.47;;
7154;SDS011;3619;53.784;10.440;2023-08-24T00:34:46;1.90;;;1.80;;
7154;SDS011;3619;53.784;10.440;2023-08-24T00:37:12;1.97;;;1.87;;
7154;SDS011;3619;53.784;10.440;2023-08-24T00:39:39;1.77;;;1.67;;
7154;SDS011;3619;53.784;10.440;2023-08-24T00:47:11;2.10;;;2.00;;
7154;SDS011;3619;53.784;10.440;2023-08-24T00:49:38;2.27;;;2.17;;
7154;SDS011;3619;53.784;10.440;2023-08-24T00:52:05;2.00;;;1.90;;
7154;SDS011;3619;53.784;10.440;2023-08-24T00:54:32;2.10;;;2.00;;
7154;SDS011;3619;53.784;10.440;2023-08-24T00:56:59;2.10;;;2.00;;
7154;SDS011;3619;53.784;10.440;2023-08-24T00:59:26;2.00;;;1.90;;
7154;SDS011;3619;53.784;10.440;2023-08-24T01:01:53;1.90;;;1.80;;
7154;SDS011;3619;53.784;10.440;2023-08-24T01:04:22;2.10;;;2.00;;
7154;SDS011;3619;53.784;10.440;2023-08-24T01:06:49;1.90;;;1.80;;
7154;SDS011;3619;53.784;10.440;2023-08-24T01:09:16;1.93;;;1.83;;
7154;SDS011;3619;53.784;10.440;2023-08-24T01:11:54;2.03;;;1.93;;
7154;SDS011;3619;53.784;10.440;2023-08-24T01:14:36;2.57;;;2.47;;
7154;SDS011;3619;53.784;10.440;2023-08-24T01:17:12;1.80;;;1.70;;
7154;SDS011;3619;53.784;10.440;2023-08-24T01:19:43;1.83;;;1.73;;
7154;SDS011;3619;53.784;10.440;2023-08-24T01:22:28;2.07;;;1.97;;
7154;SDS011;3619;53.784;10.440;2023-08-24T01:25:01;1.87;;;1.77;;
7154;SDS011;3619;53.784;10.440;2023-08-24T01:30:04;3.63;;;1.83;;
7154;SDS011;3619;53.784;10.440;2023-08-24T01:32:32;1.97;;;1.87;;
7154;SDS011;3619;53.784;10.440;2023-08-24T01:35:01;1.80;;;1.70;;
7154;SDS011;3619;53.784;10.440;2023-08-24T01:37:35;1.40;;;1.40;;
7154;SDS011;3619;53.784;10.440;2023-08-24T01:40:03;1.77;;;1.67;;
7154;SDS011;3619;53.784;10.440;2023-08-24T01:42:36;1.50;;;1.50;;
7154;SDS011;3619;53.784;10.440;2023-08-24T01:45:11;2.20;;;2.10;;
7154;SDS011;3619;53.784;10.440;2023-08-24T01:47:40;1.77;;;1.67;;
7154;SDS011;3619;53.784;10.440;2023-08-24T01:50:09;1.73;;;1.63;;
7154;SDS011;3619;53.784;10.440;2023-08-24T01:52:38;1.63;;;1.63;;
7154;SDS011;3619;53.784;10.440;2023-08-24T01:55:30;2.83;;;2.40;;
7154;SDS011;3619;53.784;10.440;2023-08-24T01:58:00;2.03;;;1.90;;
7154;SDS011;3619;53.784;10.440;2023-08-24T02:00:27;1.80;;;1.70;;
7154;SDS011;3619;53.784;10.440;2023-08-24T02:02:54;2.00;;;1.90;;
7154;SDS011;3619;53.784;10.440;2023-08-24T02:05:21;1.77;;;1.67;;
7154;SDS011;3619;53.784;10.440;2023-08-24T02:07:52;1.60;;;1.50;;
7154;SDS011;3619;53.784;10.440;2023-08-24T02:10:19;2.00;;;1.90;;
7154;SDS011;3619;53.784;10.440;2023-08-24T02:12:46;2.50;;;2.40;;
7154;SDS011;3619;53.784;10.440;2023-08-24T02:15:15;2.50;;;2.30;;
7154;SDS011;3619;53.784;10.440;2023-08-24T02:17:42;2.63;;;2.43;;
7154;SDS011;3619;53.784;10.440;2023-08-24T02:20:12;2.00;;;1.90;;
7154;SDS011;3619;53.784;10.440;2023-08-24T02:22:40;2.50;;;2.27;;
7154;SDS011;3619;53.784;10.440;2023-08-24T02:25:09;2.10;;;2.00;;
7154;SDS011;3619;53.784;10.440;2023-08-24T02:27:36;3.03;;;2.63;;
7154;SDS011;3619;53.784;10.440;2023-08-24T02:30:03;1.70;;;1.67;;
7154;SDS011;3619;53.784;10.440;2023-08-24T02:32:32;1.90;;;1.80;;
7154;SDS011;3619;53.784;10.440;2023-08-24T02:35:01;2.80;;;2.70;;
7154;SDS011;3619;53.784;10.440;2023-08-24T02:37:28;2.00;;;1.90;;
7154;SDS011;3619;53.784;10.440;2023-08-24T02:39:55;1.80;;;1.80;;
7154;SDS011;3619;53.784;10.440;2023-08-24T02:42:21;2.50;;;2.40;;
7154;SDS011;3619;53.784;10.440;2023-08-24T02:44:48;6.00;;;3.23;;
7154;SDS011;3619;53.784;10.440;2023-08-24T02:47:15;1.63;;;1.63;;
7154;SDS011;3619;53.784;10.440;2023-08-24T02:49:49;2.70;;;2.60;;
7154;SDS011;3619;53.784;10.440;2023-08-24T02:52:31;2.47;;;2.37;;
7154;SDS011;3619;53.784;10.440;2023-08-24T02:54:58;2.37;;;2.23;;
7154;SDS011;3619;53.784;10.440;2023-08-24T02:57:25;1.93;;;1.83;;
7154;SDS011;3619;53.784;10.440;2023-08-24T02:59:52;1.47;;;1.37;;
7154;SDS011;3619;53.784;10.440;2023-08-24T03:02:18;2.00;;;1.90;;
7154;SDS011;3619;53.784;10.440;2023-08-24T03:04:50;2.30;;;2.20;;
7154;SDS011;3619;53.784;10.440;2023-08-24T03:07:17;1.73;;;1.73;;
7154;SDS011;3619;53.784;10.440;2023-08-24T03:09:44;2.30;;;2.20;;
7154;SDS011;3619;53.784;10.440;2023-08-24T03:12:11;1.23;;;1.23;;
7154;SDS011;3619;53.784;10.440;2023-08-24T03:14:38;1.80;;;1.73;;
7154;SDS011;3619;53.784;10.440;2023-08-24T03:17:08;1.73;;;1.63;;
7154;SDS011;3619;53.784;10.440;2023-08-24T03:19:36;2.10;;;2.00;;
7154;SDS011;3619;53.784;10.440;2023-08-24T03:22:04;1.97;;;1.87;;
7154;SDS011;3619;53.784;10.440;2023-08-24T03:24:31;2.03;;;1.93;;
7154;SDS011;3619;53.784;10.440;2023-08-24T03:27:03;2.03;;;1.93;;
7154;SDS011;3619;53.784;10.440;2023-08-24T03:29:34;1.40;;;1.40;;
7154;SDS011;3619;53.784;10.440;2023-08-24T03:32:01;2.10;;;2.00;;
7154;SDS011;3619;53.784;10.440;2023-08-24T03:34:29;2.50;;;2.40;;
7154;SDS011;3619;53.784;10.440;2023-08-24T03:36:56;2.33;;;1.87;;
7154;SDS011;3619;53.784;10.440;2023-08-24T03:39:28;1.97;;;1.87;;
7154;SDS011;3619;53.784;10.440;2023-08-24T03:42:01;2.00;;;1.90;;
7154;SDS011;3619;53.784;10.440;2023-08-24T03:45:17;4.03;;;2.17;;
7154;SDS011;3619;53.784;10.440;2023-08-24T03:59:11;1.73;;;1.63;;
7154;SDS011;3619;53.784;10.440;2023-08-24T04:01:40;1.83;;;1.83;;
7154;SDS011;3619;53.784;10.440;2023-08-24T04:04:09;2.10;;;2.00;;
7154;SDS011;3619;53.784;10.440;2023-08-24T04:06:50;2.10;;;2.00;;
7154;SDS011;3619;53.784;10.440;2023-08-24T04:09:19;2.10;;;2.00;;
7154;SDS011;3619;53.784;10.440;2023-08-24T04:11:47;1.60;;;1.60;;
7154;SDS011;3619;53.784;10.440;2023-08-24T04:14:15;2.70;;;2.50;;
7154;SDS011;3619;53.784;10.440;2023-08-24T04:16:42;2.60;;;1.80;;
7154;SDS011;3619;53.784;10.440;2023-08-24T04:19:09;1.90;;;1.80;;
7154;SDS011;3619;53.784;10.440;2023-08-24T04:21:36;3.33;;;2.63;;
7154;SDS011;3619;53.784;10.440;2023-08-24T04:24:10;1.57;;;1.47;;
7154;SDS011;3619;53.784;10.440;2023-08-24T04:26:37;1.77;;;1.67;;
7154;SDS011;3619;53.784;10.440;2023-08-24T04:29:06;1.47;;;1.47;;
7154;SDS011;3619;53.784;10.440;2023-08-24T04:31:34;1.70;;;1.70;;
7154;SDS011;3619;53.784;10.440;2023-08-24T04:34:02;2.07;;;1.97;;
7154;SDS011;3619;53.784;10.440;2023-08-24T04:36:30;1.60;;;1.60;;
7154;SDS011;3619;53.784;10.440;2023-08-24T04:38:58;2.40;;;2.30;;
7154;SDS011;3619;53.784;10.440;2023-08-24T04:41:26;1.77;;;1.73;;
7154;SDS011;3619;53.784;10.440;2023-08-24T04:43:53;1.97;;;1.93;;
7154;SDS011;3619;53.784;10.440;2023-08-24T04:46:20;2.20;;;2.10;;
7154;SDS011;3619;53.784;10.440;2023-08-24T04:48:49;2.20;;;2.10;;
7154;SDS011;3619;53.784;10.440;2023-08-24T04:51:18;2.83;;;2.73;;
7154;SDS011;3619;53.784;10.440;2023-08-24T04:53:45;2.07;;;1.97;;
7154;SDS011;3619;53.784;10.440;2023-08-24T04:56:15;1.93;;;1.83;;
7154;SDS011;3619;53.784;10.440;2023-08-24T04:58:51;2.00;;;1.90;;
7154;SDS011;3619;53.784;10.440;2023-08-24T05:01:20;1.97;;;1.87;;
7154;SDS011;3619;53.784;10.440;2023-08-24T05:03:46;1.87;;;1.83;;
7154;SDS011;3619;53.784;10.440;2023-08-24T05:06:15;2.10;;;2.00;;
7154;SDS011;3619;53.784;10.440;2023-08-24T05:08:42;1.90;;;1.80;;
7154;SDS011;3619;53.784;10.440;2023-08-24T05:11:12;1.70;;;1.70;;
7154;SDS011;3619;53.784;10.440;2023-08-24T05:13:39;2.00;;;1.90;;
7154;SDS011;3619;53.784;10.440;2023-08-24T05:16:06;1.67;;;1.67;;
7154;SDS011;3619;53.784;10.440;2023-08-24T05:18:33;1.87;;;1.83;;
7154;SDS011;3619;53.784;10.440;2023-08-24T05:21:06;1.90;;;1.80;;
7154;SDS011;3619;53.784;10.440;2023-08-24T05:23:33;2.07;;;1.97;;
7154;SDS011;3619;53.784;10.440;2023-08-24T05:26:02;2.00;;;1.93;;
7154;SDS011;3619;53.784;10.440;2023-08-24T05:28:29;2.37;;;2.27;;
7154;SDS011;3619;53.784;10.440;2023-08-24T05:30:59;2.20;;;2.10;;
7154;SDS011;3619;53.784;10.440;2023-08-24T05:33:28;2.43;;;2.33;;
7154;SDS011;3619;53.784;10.440;2023-08-24T05:35:56;1.93;;;1.83;;
7154;SDS011;3619;53.784;10.440;2023-08-24T05:38:26;2.27;;;2.17;;
7154;SDS011;3619;53.784;10.440;2023-08-24T05:44:29;2.33;;;2.23;;
7154;SDS011;3619;53.784;10.440;2023-08-24T05:47:16;2.07;;;1.97;;
7154;SDS011;3619;53.784;10.440;2023-08-24T05:52:50;2.27;;;2.17;;
7154;SDS011;3619;53.784;10.440;2023-08-24T05:55:28;2.40;;;2.30;;
7154;SDS011;3619;53.784;10.440;2023-08-24T05:57:58;3.43;;;3.13;;
7154;SDS011;3619;53.784;10.440;2023-08-24T06:01:52;2.97;;;2.87;;
7154;SDS011;3619;53.784;10.440;2023-08-24T06:04:10;3.10;;;2.90;;
7154;SDS011;3619;53.784;10.440;2023-08-24T06:06:40;2.73;;;2.63;;
7154;SDS011;3619;53.784;10.440;2023-08-24T06:09:07;3.27;;;3.17;;
7154;SDS011;3619;53.784;10.440;2023-08-24T06:11:40;3.13;;;2.93;;
7154;SDS011;3619;53.784;10.440;2023-08-24T06:14:11;2.50;;;2.40;;
7154;SDS011;3619;53.784;10.440;2023-08-24T06:16:40;3.60;;;3.40;;
7154;SDS011;3619;53.784;10.440;2023-08-24T06:19:25;2.90;;;2.80;;
7154;SDS011;3619;53.784;10.440;2023-08-24T06:43:15;3.13;;;3.03;;
7154;SDS011;3619;53.784;10.440;2023-08-24T06:49:31;2.63;;;2.53;;
7154;SDS011;3619;53.784;10.440;2023-08-24T07:01:46;2.53;;;2.43;;
7154;SDS011;3619;53.784;10.440;2023-08-24T07:17:50;1.30;;;1.30;;
7154;SDS011;3619;53.784;10.440;2023-08-24T07:20:46;1.20;;;1.20;;
7154;SDS011;3619;53.784;10.440;2023-08-24T07:26:31;1.17;;;1.13;;
7154;SDS011;3619;53.784;10.440;2023-08-24T07:29:03;0.90;;;0.90;;
7154;SDS011;3619;53.784;10.440;2023-08-24T07:31:34;1.10;;;1.10;;
7154;SDS011;3619;53.784;10.440;2023-08-24T07:34:09;1.20;;;1.20;;
7154;SDS011;3619;53.784;10.440;2023-08-24T07:36:47;0.90;;;0.90;;
7154;SDS011;3619;53.784;10.440;2023-08-24T07:39:14;0.90;;;0.90;;
7154;SDS011;3619;53.784;10.440;2023-08-24T07:41:41;1.00;;;1.00;;
7154;SDS011;3619;53.784;10.440;2023-08-24T07:44:08;1.03;;;1.03;;
7154;SDS011;3619;53.784;10.440;2023-08-24T07:46:38;1.13;;;1.13;;
7154;SDS011;3619;53.784;10.440;2023-08-24T07:49:05;1.00;;;1.00;;
7154;SDS011;3619;53.784;10.440;2023-08-24T07:51:32;0.87;;;0.87;;
7154;SDS011;3619;53.784;10.440;2023-08-24T07:54:05;0.90;;;0.90;;
7154;SDS011;3619;53.784;10.440;2023-08-24T07:56:32;0.93;;;0.93;;
7154;SDS011;3619;53.784;10.440;2023-08-24T08:02:09;0.80;;;0.80;;
7154;SDS011;3619;53.784;10.440;2023-08-24T08:07:50;0.80;;;0.80;;
7154;SDS011;3619;53.784;10.440;2023-08-24T08:10:22;1.30;;;1.20;;
7154;SDS011;3619;53.784;10.440;2023-08-24T08:12:57;0.80;;;0.80;;
7154;SDS011;3619;53.784;10.440;2023-08-24T08:15:28;1.00;;;0.97;;
7154;SDS011;3619;53.784;10.440;2023-08-24T08:17:57;0.83;;;0.83;;
7154;SDS011;3619;53.784;10.440;2023-08-24T08:20:24;0.80;;;0.80;;
7154;SDS011;3619;53.784;10.440;2023-08-24T08:22:51;0.80;;;0.80;;
7154;SDS011;3619;53.784;10.440;2023-08-24T08:25:18;0.70;;;0.70;;
7154;SDS011;3619;53.784;10.440;2023-08-24T08:27:48;0.80;;;0.80;;
7154;SDS011;3619;53.784;10.440;2023-08-24T08:33:07;0.90;;;0.87;;
7154;SDS011;3619;53.784;10.440;2023-08-24T08:35:33;0.70;;;0.70;;
7154;SDS011;3619;53.784;10.440;2023-08-24T08:38:02;0.80;;;0.80;;
7154;SDS011;3619;53.784;10.440;2023-08-24T08:40:30;0.70;;;0.70;;
7154;SDS011;3619;53.784;10.440;2023-08-24T08:42:57;0.70;;;0.70;;
7154;SDS011;3619;53.784;10.440;2023-08-24T08:45:24;0.70;;;0.70;;
7154;SDS011;3619;53.784;10.440;2023-08-24T08:47:53;0.70;;;0.70;;
7154;SDS011;3619;53.784;10.440;2023-08-24T08:50:25;0.70;;;0.70;;
7154;SDS011;3619;53.784;10.440;2023-08-24T08:52:52;0.70;;;0.70;;
7154;SDS011;3619;53.784;10.440;2023-08-24T08:55:19;0.77;;;0.77;;
7154;SDS011;3619;53.784;10.440;2023-08-24T08:57:47;0.80;;;0.80;;
7154;SDS011;3619;53.784;10.440;2023-08-24T09:00:15;0.80;;;0.80;;
7154;SDS011;3619;53.784;10.440;2023-08-24T09:02:44;0.77;;;0.77;;
7154;SDS011;3619;53.784;10.440;2023-08-24T09:05:14;0.80;;;0.80;;
7154;SDS011;3619;53.784;10.440;2023-08-24T09:07:43;0.80;;;0.80;;
7154;SDS011;3619;53.784;10.440;2023-08-24T09:10:11;0.63;;;0.63;;
7154;SDS011;3619;53.784;10.440;2023-08-24T09:12:38;0.80;;;0.80;;
7154;SDS011;3619;53.784;10.440;2023-08-24T09:15:05;0.70;;;0.70;;
7154;SDS011;3619;53.784;10.440;2023-08-24T09:17:33;0.70;;;0.70;;
7154;SDS011;3619;53.784;10.440;2023-08-24T09:20:01;0.70;;;0.70;;
7154;SDS011;3619;53.784;10.440;2023-08-24T09:22:35;0.70;;;0.70;;
7154;SDS011;3619;53.784;10.440;2023-08-24T09:25:04;0.70;;;0.70;;
7154;SDS011;3619;53.784;10.440;2023-08-24T09:27:33;0.70;;;0.70;;
7154;SDS011;3619;53.784;10.440;2023-08-24T09:30:01;0.60;;;0.60;;
7154;SDS011;3619;53.784;10.440;2023-08-24T09:32:28;0.70;;;0.70;;
7154;SDS011;3619;53.784;10.440;2023-08-24T09:34:55;1.77;;;0.77;;
7154;SDS011;3619;53.784;10.440;2023-08-24T09:37:31;0.83;;;0.83;;
7154;SDS011;3619;53.784;10.440;2023-08-24T09:40:04;0.80;;;0.80;;
7154;SDS011;3619;53.784;10.440;2023-08-24T09:42:36;0.80;;;0.80;;
7154;SDS011;3619;53.784;10.440;2023-08-24T09:45:05;0.67;;;0.67;;
7154;SDS011;3619;53.784;10.440;2023-08-24T09:47:37;0.70;;;0.70;;
7154;SDS011;3619;53.784;10.440;2023-08-24T09:50:05;0.70;;;0.70;;
7154;SDS011;3619;53.784;10.440;2023-08-24T09:52:34;0.70;;;0.70;;
7154;SDS011;3619;53.784;10.440;2023-08-24T09:55:05;0.60;;;0.60;;
7154;SDS011;3619;53.784;10.440;2023-08-24T09:57:36;1.10;;;1.00;;
7154;SDS011;3619;53.784;10.440;2023-08-24T10:00:08;0.53;;;0.53;;
7154;SDS011;3619;53.784;10.440;2023-08-24T10:02:36;0.60;;;0.60;;
7154;SDS011;3619;53.784;10.440;2023-08-24T10:05:07;0.70;;;0.70;;
7154;SDS011;3619;53.784;10.440;2023-08-24T10:07:42;0.77;;;0.77;;
7154;SDS011;3619;53.784;10.440;2023-08-24T10:10:32;1.03;;;0.93;;
7154;SDS011;3619;53.784;10.440;2023-08-24T10:14:00;0.70;;;0.70;;
7154;SDS011;3619;53.784;10.440;2023-08-24T10:16:49;0.70;;;0.70;;
7154;SDS011;3619;53.784;10.440;2023-08-24T10:19:16;0.70;;;0.70;;
7154;SDS011;3619;53.784;10.440;2023-08-24T10:21:43;0.83;;;0.83;;
7154;SDS011;3619;53.784;10.440;2023-08-24T10:24:11;0.80;;;0.80;;
7154;SDS011;3619;53.784;10.440;2023-08-24T10:26:41;0.80;;;0.80;;
7154;SDS011;3619;53.784;10.440;2023-08-24T10:29:09;0.67;;;0.67;;
7154;SDS011;3619;53.784;10.440;2023-08-24T10:31:36;0.60;;;0.60;;
7154;SDS011;3619;53.784;10.440;2023-08-24T10:34:04;0.97;;;0.97;;
7154;SDS011;3619;53.784;10.440;2023-08-24T10:36:32;0.87;;;0.87;;
7154;SDS011;3619;53.784;10.440;2023-08-24T10:39:06;1.70;;;0.80;;
7154;SDS011;3619;53.784;10.440;2023-08-24T10:44:36;0.73;;;0.73;;
7154;SDS011;3619;53.784;10.440;2023-08-24T10:47:07;1.13;;;0.80;;
7154;SDS011;3619;53.784;10.440;2023-08-24T10:49:38;0.87;;;0.87;;
7154;SDS011;3619;53.784;10.440;2023-08-24T10:52:19;0.67;;;0.67;;
7154;SDS011;3619;53.784;10.440;2023-08-24T10:54:46;2.90;;;1.20;;
7154;SDS011;3619;53.784;10.440;2023-08-24T10:57:19;1.10;;;1.00;;
7154;SDS011;3619;53.784;10.440;2023-08-24T11:00:00;0.80;;;0.80;;
7154;SDS011;3619;53.784;10.440;2023-08-24T11:02:40;0.60;;;0.60;;
7154;SDS011;3619;53.784;10.440;2023-08-24T11:05:18;0.80;;;0.80;;
7154;SDS011;3619;53.784;10.440;2023-08-24T11:07:49;0.60;;;0.60;;
7154;SDS011;3619;53.784;10.440;2023-08-24T11:10:18;0.80;;;0.80;;
7154;SDS011;3619;53.784;10.440;2023-08-24T11:15:39;0.70;;;0.70;;
7154;SDS011;3619;53.784;10.440;2023-08-24T11:18:20;1.03;;;0.83;;
7154;SDS011;3619;53.784;10.440;2023-08-24T11:21:00;0.70;;;0.70;;
7154;SDS011;3619;53.784;10.440;2023-08-24T11:23:28;0.70;;;0.70;;
7154;SDS011;3619;53.784;10.440;2023-08-24T11:25:56;0.60;;;0.60;;
7154;SDS011;3619;53.784;10.440;2023-08-24T11:28:28;0.90;;;0.80;;
7154;SDS011;3619;53.784;10.440;2023-08-24T11:30:56;1.03;;;0.80;;
7154;SDS011;3619;53.784;10.440;2023-08-24T11:33:29;0.70;;;0.70;;
7154;SDS011;3619;53.784;10.440;2023-08-24T11:35:56;0.80;;;0.80;;
7154;SDS011;3619;53.784;10.440;2023-08-24T11:38:24;0.70;;;0.70;;
7154;SDS011;3619;53.784;10.440;2023-08-24T11:40:52;2.73;;;0.97;;
7154;SDS011;3619;53.784;10.440;2023-08-24T11:43:23;0.93;;;0.83;;
7154;SDS011;3619;53.784;10.440;2023-08-24T11:45:53;0.63;;;0.63;;
7154;SDS011;3619;53.784;10.440;2023-08-24T11:48:23;1.33;;;0.73;;
7154;SDS011;3619;53.784;10.440;2023-08-24T11:50:51;0.70;;;0.70;;
7154;SDS011;3619;53.784;10.440;2023-08-24T11:53:19;0.80;;;0.80;;
7154;SDS011;3619;53.784;10.440;2023-08-24T11:55:46;1.10;;;1.00;;
7154;SDS011;3619;53.784;10.440;2023-08-24T11:58:13;0.70;;;0.70;;
7154;SDS011;3619;53.784;10.440;2023-08-24T12:00:43;0.80;;;0.80;;
7154;SDS011;3619;53.784;10.440;2023-08-24T12:03:12;0.80;;;0.80;;
7154;SDS011;3619;53.784;10.440;2023-08-24T12:05:39;0.63;;;0.63;;
7154;SDS011;3619;53.784;10.440;2023-08-24T12:08:10;1.63;;;0.90;;
7154;SDS011;3619;53.784;10.440;2023-08-24T12:10:41;0.97;;;0.90;;
7154;SDS011;3619;53.784;10.440;2023-08-24T12:13:09;0.80;;;0.80;;
7154;SDS011;3619;53.784;10.440;2023-08-24T12:15:38;0.87;;;0.87;;
7154;SDS011;3619;53.784;10.440;2023-08-24T12:18:08;0.70;;;0.70;;
7154;SDS011;3619;53.784;10.440;2023-08-24T12:20:39;0.70;;;0.70;;
7154;SDS011;3619;53.784;10.440;2023-08-24T12:23:07;0.73;;;0.73;;
7154;SDS011;3619;53.784;10.440;2023-08-24T12:25:37;0.60;;;0.60;;
7154;SDS011;3619;53.784;10.440;2023-08-24T12:28:10;0.80;;;0.80;;
7154;SDS011;3619;53.784;10.440;2023-08-24T12:30:48;5.23;;;0.80;;
7154;SDS011;3619;53.784;10.440;2023-08-24T12:33:28;0.63;;;0.63;;
7154;SDS011;3619;53.784;10.440;2023-08-24T12:35:56;0.80;;;0.80;;
7154;SDS011;3619;53.784;10.440;2023-08-24T12:38:24;0.83;;;0.83;;
7154;SDS011;3619;53.784;10.440;2023-08-24T12:40:55;0.70;;;0.70;;
7154;SDS011;3619;53.784;10.440;2023-08-24T12:43:25;2.87;;;1.00;;
7154;SDS011;3619;53.784;10.440;2023-08-24T12:45:52;0.90;;;0.90;;
7154;SDS011;3619;53.784;10.440;2023-08-24T12:48:19;0.93;;;0.93;;
7154;SDS011;3619;53.784;10.440;2023-08-24T12:50:47;3.67;;;1.00;;
7154;SDS011;3619;53.784;10.440;2023-08-24T12:53:14;0.80;;;0.80;;
7154;SDS011;3619;53.784;10.440;2023-08-24T12:55:41;0.70;;;0.70;;
7154;SDS011;3619;53.784;10.440;2023-08-24T12:58:11;0.60;;;0.60;;
7154;SDS011;3619;53.784;10.440;2023-08-24T13:00:37;1.20;;;1.07;;
7154;SDS011;3619;53.784;10.440;2023-08-24T13:03:04;0.97;;;0.97;;
7154;SDS011;3619;53.784;10.440;2023-08-24T13:05:31;0.80;;;0.80;;
7154;SDS011;3619;53.784;10.440;2023-08-24T13:07:59;0.80;;;0.80;;
7154;SDS011;3619;53.784;10.440;2023-08-24T13:10:26;0.77;;;0.77;;
7154;SDS011;3619;53.784;10.440;2023-08-24T13:12:52;0.80;;;0.80;;
7154;SDS011;3619;53.784;10.440;2023-08-24T13:15:19;0.70;;;0.70;;
7154;SDS011;3619;53.784;10.440;2023-08-24T13:17:46;0.90;;;0.90;;
7154;SDS011;3619;53.784;10.440;2023-08-24T13:20:13;0.80;;;0.80;;
7154;SDS011;3619;53.784;10.440;2023-08-24T13:22:41;0.90;;;0.90;;
7154;SDS011;3619;53.784;10.440;2023-08-24T13:25:10;1.00;;;0.90;;
7154;SDS011;3619;53.784;10.440;2023-08-24T13:27:38;1.90;;;0.80;;
7154;SDS011;3619;53.784;10.440;2023-08-24T13:30:06;0.77;;;0.77;;
7154;SDS011;3619;53.784;10.440;2023-08-24T13:32:38;0.70;;;0.70;;
7154;SDS011;3619;53.784;10.440;2023-08-24T13:35:06;0.87;;;0.87;;
7154;SDS011;3619;53.784;10.440;2023-08-24T13:37:34;0.80;;;0.80;;
7154;SDS011;3619;53.784;10.440;2023-08-24T13:40:01;0.70;;;0.70;;
7154;SDS011;3619;53.784;10.440;2023-08-24T13:42:30;0.60;;;0.60;;
7154;SDS011;3619;53.784;10.440;2023-08-24T13:44:57;0.70;;;0.70;;
7154;SDS011;3619;53.784;10.440;2023-08-24T13:47:23;0.70;;;0.70;;
7154;SDS011;3619;53.784;10.440;2023-08-24T13:49:50;0.70;;;0.70;;
7154;SDS011;3619;53.784;10.440;2023-08-24T13:52:17;0.70;;;0.70;;
7154;SDS011;3619;53.784;10.440;2023-08-24T13:54:44;0.73;;;0.73;;
7154;SDS011;3619;53.784;10.440;2023-08-24T13:57:11;0.80;;;0.80;;
7154;SDS011;3619;53.784;10.440;2023-08-24T13:59:39;0.70;;;0.70;;
7154;SDS011;3619;53.784;10.440;2023-08-24T14:02:06;0.67;;;0.67;;
7154;SDS011;3619;53.784;10.440;2023-08-24T14:04:33;1.10;;;0.80;;
7154;SDS011;3619;53.784;10.440;2023-08-24T14:07:00;0.93;;;0.87;;
7154;SDS011;3619;53.784;10.440;2023-08-24T14:09:27;0.83;;;0.83;;
7154;SDS011;3619;53.784;10.440;2023-08-24T14:11:54;0.67;;;0.67;;
7154;SDS011;3619;53.784;10.440;2023-08-24T14:14:21;0.80;;;0.80;;
7154;SDS011;3619;53.784;10.440;2023-08-24T14:16:49;1.00;;;0.80;;
7154;SDS011;3619;53.784;10.440;2023-08-24T14:19:20;0.80;;;0.80;;
7154;SDS011;3619;53.784;10.440;2023-08-24T14:21:47;0.70;;;0.70;;
7154;SDS011;3619;53.784;10.440;2023-08-24T14:24:24;2.23;;;0.97;;
7154;SDS011;3619;53.784;10.440;2023-08-24T14:26:51;1.10;;;1.00;;
7154;SDS011;3619;53.784;10.440;2023-08-24T14:29:17;0.80;;;0.80;;
7154;SDS011;3619;53.784;10.440;2023-08-24T14:31:44;0.80;;;0.80;;
7154;SDS011;3619;53.784;10.440;2023-08-24T14:34:12;1.30;;;0.70;;
7154;SDS011;3619;53.784;10.440;2023-08-24T14:36:39;0.90;;;0.90;;
7154;SDS011;3619;53.784;10.440;2023-08-24T14:39:06;0.80;;;0.80;;
7154;SDS011;3619;53.784;10.440;2023-08-24T14:41:33;0.70;;;0.70;;
7154;SDS011;3619;53.784;10.440;2023-08-24T14:44:00;0.70;;;0.70;;
7154;SDS011;3619;53.784;10.440;2023-08-24T14:46:26;1.27;;;0.80;;
7154;SDS011;3619;53.784;10.440;2023-08-24T14:48:53;0.80;;;0.80;;
7154;SDS011;3619;53.784;10.440;2023-08-24T14:51:22;0.80;;;0.80;;
7154;SDS011;3619;53.784;10.440;2023-08-24T14:53:49;0.80;;;0.80;;
7154;SDS011;3619;53.784;10.440;2023-08-24T14:56:15;0.80;;;0.80;;
7154;SDS011;3619;53.784;10.440;2023-08-24T14:58:42;1.03;;;1.03;;
7154;SDS011;3619;53.784;10.440;2023-08-24T15:01:09;0.70;;;0.70;;
7154;SDS011;3619;53.784;10.440;2023-08-24T15:03:37;1.40;;;1.30;;
7154;SDS011;3619;53.784;10.440;2023-08-24T15:06:05;0.70;;;0.70;;
7154;SDS011;3619;53.784;10.440;2023-08-24T15:08:41;1.03;;;0.93;;
7154;SDS011;3619;53.784;10.440;2023-08-24T15:11:09;0.80;;;0.80;;
7154;SDS011;3619;53.784;10.440;2023-08-24T15:13:37;1.00;;;0.80;;
7154;SDS011;3619;53.784;10.440;2023-08-24T15:16:05;0.90;;;0.90;;
7154;SDS011;3619;53.784;10.440;2023-08-24T15:18:32;0.70;;;0.70;;
7154;SDS011;3619;53.784;10.440;2023-08-24T15:20:58;0.83;;;0.83;;
7154;SDS011;3619;53.784;10.440;2023-08-24T15:23:28;0.97;;;0.97;;
7154;SDS011;3619;53.784;10.440;2023-08-24T15:25:57;0.93;;;0.93;;
7154;SDS011;3619;53.784;10.440;2023-08-24T15:28:26;0.70;;;0.70;;
7154;SDS011;3619;53.784;10.440;2023-08-24T15:31:00;0.73;;;0.73;;
7154;SDS011;3619;53.784;10.440;2023-08-24T15:33:27;0.70;;;0.70;;
7154;SDS011;3619;53.784;10.440;2023-08-24T15:35:54;0.90;;;0.90;;
7154;SDS011;3619;53.784;10.440;2023-08-24T15:38:21;0.83;;;0.83;;
7154;SDS011;3619;53.784;10.440;2023-08-24T15:40:51;1.10;;;1.10;;
7154;SDS011;3619;53.784;10.440;2023-08-24T15:43:21;0.90;;;0.90;;
7154;SDS011;3619;53.784;10.440;2023-08-24T15:45:48;0.80;;;0.80;;
7154;SDS011;3619;53.784;10.440;2023-08-24T15:48:17;0.80;;;0.80;;
7154;SDS011;3619;53.784;10.440;2023-08-24T15:50:44;3.60;;;1.00;;
7154;SDS011;3619;53.784;10.440;2023-08-24T15:53:11;0.67;;;0.67;;
7154;SDS011;3619;53.784;10.440;2023-08-24T15:55:37;0.80;;;0.80;;
7154;SDS011;3619;53.784;10.440;2023-08-24T15:58:04;0.80;;;0.80;;
7154;SDS011;3619;53.784;10.440;2023-08-24T16:00:33;1.00;;;1.00;;
7154;SDS011;3619;53.784;10.440;2023-08-24T16:03:00;2.30;;;0.83;;
7154;SDS011;3619;53.784;10.440;2023-08-24T16:05:27;0.80;;;0.80;;
7154;SDS011;3619;53.784;10.440;2023-08-24T16:07:54;0.57;;;0.57;;
7154;SDS011;3619;53.784;10.440;2023-08-24T16:10:20;0.80;;;0.80;;
7154;SDS011;3619;53.784;10.440;2023-08-24T16:12:48;0.70;;;0.70;;
7154;SDS011;3619;53.784;10.440;2023-08-24T16:15:15;0.80;;;0.80;;
7154;SDS011;3619;53.784;10.440;2023-08-24T16:17:43;0.80;;;0.80;;
7154;SDS011;3619;53.784;10.440;2023-08-24T16:20:10;0.97;;;0.97;;
7154;SDS011;3619;53.784;10.440;2023-08-24T16:22:42;0.80;;;0.70;;
7154;SDS011;3619;53.784;10.440;2023-08-24T16:25:12;0.73;;;0.73;;
7154;SDS011;3619;53.784;10.440;2023-08-24T16:27:48;0.87;;;0.87;;
7154;SDS011;3619;53.784;10.440;2023-08-24T16:30:21;0.60;;;0.60;;
7154;SDS011;3619;53.784;10.440;2023-08-24T16:32:49;0.80;;;0.80;;
7154;SDS011;3619;53.784;10.440;2023-08-24T16:35:17;0.60;;;0.60;;
7154;SDS011;3619;53.784;10.440;2023-08-24T16:37:43;0.70;;;0.70;;
7154;SDS011;3619;53.784;10.440;2023-08-24T16:40:10;0.70;;;0.70;;
7154;SDS011;3619;53.784;10.440;2023-08-24T16:42:37;0.73;;;0.73;;
7154;SDS011;3619;53.784;10.440;2023-08-24T16:45:05;0.80;;;0.80;;
7154;SDS011;3619;53.784;10.440;2023-08-24T16:47:33;0.70;;;0.70;;